Time;durP1;ratioP1;P1;durP2;ratioP2;P2;SDS_P1;SDS_P2;PMS_P1;PMS_P2;Temp;Humidity;BMP_temperature;BMP_pressure;BME280_temperature;BME280_humidity;BME280_pressure;Samples;Min_cycle;Max_cycle;Signal;HPM_P1;HPM_P2
2023/02/23 00:01:26;;;;;;;1999.90;999.90;;;7.60;99.90;;;;;;5095024;28;20020;-80
2023/02/23 00:03:55;;;;;;;1999.90;999.90;;;7.60;99.90;;;;;;5094568;28;20020;-80
2023/02/23 00:06:21;;;;;;;1999.90;999.90;;;7.50;99.90;;;;;;5094265;28;20028;-72
2023/02/23 00:08:47;;;;;;;1999.90;999.90;;;7.60;99.90;;;;;;5094581;28;20055;-72
2023/02/23 00:11:14;;;;;;;1999.90;999.90;;;7.60;99.90;;;;;;5094753;28;20059;-73
2023/02/23 00:13:41;;;;;;;1999.90;999.90;;;7.60;99.90;;;;;;5094806;28;20024;-72
2023/02/23 00:16:11;;;;;;;1999.90;999.90;;;7.60;99.90;;;;;;5094612;28;20383;-73
2023/02/23 00:18:43;;;;;;;1999.90;999.90;;;7.50;99.90;;;;;;5094851;28;20043;-80
2023/02/23 00:21:14;;;;;;;1999.90;999.90;;;7.50;99.90;;;;;;5081068;28;20056;-80
2023/02/23 00:23:54;;;;;;;1999.90;999.90;;;7.40;99.90;;;;;;5074132;28;20037;-72
2023/02/23 00:26:22;;;;;;;1999.90;999.90;;;7.40;99.90;;;;;;5074065;28;20081;-80
2023/02/23 00:28:49;;;;;;;1999.90;999.90;;;7.40;99.90;;;;;;5074090;28;20066;-80
2023/02/23 00:31:16;;;;;;;1999.90;999.90;;;7.40;99.90;;;;;;5074297;28;20493;-80
2023/02/23 00:33:41;;;;;;;1999.90;999.90;;;7.40;99.90;;;;;;5074359;28;20013;-80
2023/02/23 00:36:13;;;;;;;1999.90;999.90;;;7.50;99.90;;;;;;5073228;28;20021;-73
2023/02/23 00:38:40;;;;;;;1999.90;999.90;;;7.40;99.90;;;;;;5080867;28;20027;-80
2023/02/23 00:41:10;;;;;;;1999.90;999.90;;;7.40;99.90;;;;;;5093949;28;20043;-80
2023/02/23 00:43:37;;;;;;;1999.90;999.90;;;7.40;99.90;;;;;;5094430;28;20016;-80
2023/02/23 00:46:04;;;;;;;1999.90;999.90;;;7.40;99.90;;;;;;5093708;28;20048;-80
2023/02/23 00:48:34;;;;;;;1999.90;999.90;;;7.30;99.90;;;;;;5093865;28;20392;-72
2023/02/23 00:51:01;;;;;;;1999.90;999.90;;;7.30;99.90;;;;;;5093905;28;20032;-73
2023/02/23 00:53:27;;;;;;;1999.90;999.90;;;7.40;99.90;;;;;;5094106;28;20020;-80
2023/02/23 00:55:55;;;;;;;1999.90;999.90;;;7.30;99.90;;;;;;5093941;28;20040;-80
2023/02/23 00:58:21;;;;;;;1999.90;999.90;;;7.30;99.90;;;;;;5093729;28;20016;-80
2023/02/23 01:00:47;;;;;;;1999.90;999.90;;;7.30;99.90;;;;;;5093508;28;20104;-73
2023/02/23 01:03:12;;;;;;;1999.90;999.90;;;7.30;99.90;;;;;;5093736;28;20474;-72
2023/02/23 01:05:38;;;;;;;1999.90;999.90;;;7.30;99.90;;;;;;5093680;28;20532;-72
2023/02/23 01:08:08;;;;;;;1999.90;999.90;;;7.30;99.90;;;;;;5093374;28;20042;-80
2023/02/23 01:10:38;;;;;;;1999.90;999.90;;;7.30;99.90;;;;;;5093487;28;20491;-80
2023/02/23 01:13:04;;;;;;;1999.90;999.90;;;7.20;99.90;;;;;;5092312;28;20435;-80
2023/02/23 01:15:31;;;;;;;1999.90;999.90;;;7.20;99.90;;;;;;5093368;28;20051;-72
2023/02/23 01:17:57;;;;;;;1999.90;999.90;;;7.20;99.90;;;;;;5092768;28;20024;-73
2023/02/23 01:20:23;;;;;;;1999.90;999.90;;;7.20;99.90;;;;;;5086234;28;20047;-80
2023/02/23 01:22:50;;;;;;;1999.90;999.90;;;7.20;99.90;;;;;;5072922;28;20077;-80
2023/02/23 01:25:17;;;;;;;1999.90;999.90;;;7.10;99.90;;;;;;5073154;28;20424;-80
2023/02/23 01:27:43;;;;;;;1999.90;999.90;;;7.10;99.90;;;;;;5073069;28;20030;-80
2023/02/23 01:30:13;;;;;;;1999.90;999.90;;;7.10;99.90;;;;;;5072771;28;20029;-72
2023/02/23 01:32:39;;;;;;;1999.90;999.90;;;7.10;99.90;;;;;;5072847;28;20099;-80
2023/02/23 01:35:09;;;;;;;1999.90;999.90;;;7.10;99.90;;;;;;5072841;28;20112;-79
2023/02/23 01:37:39;;;;;;;1999.90;999.90;;;7.10;99.90;;;;;;5071997;28;20500;-80
2023/02/23 01:40:12;;;;;;;1999.90;999.90;;;7.10;99.90;;;;;;5091813;28;20632;-72
2023/02/23 01:42:40;;;;;;;1999.90;999.90;;;7.00;99.90;;;;;;5092797;28;20024;-72
2023/02/23 01:45:36;;;;;;;1999.90;999.90;;;7.00;99.90;;;;;;5092701;28;20024;-79
2023/02/23 01:48:11;;;;;;;1999.90;999.90;;;7.00;99.90;;;;;;5091281;28;20508;-80
2023/02/23 01:51:02;;;;;;;1999.90;999.90;;;7.00;99.90;;;;;;5092343;28;20020;-72
2023/02/23 01:53:32;;;;;;;1999.90;999.90;;;7.00;99.90;;;;;;5081449;28;20044;-72
2023/02/23 01:56:10;;;;;;;1999.90;999.90;;;7.00;99.90;;;;;;5092763;28;20042;-72
2023/02/23 01:58:38;;;;;;;1999.90;999.90;;;7.10;99.90;;;;;;5092652;28;20028;-80
2023/02/23 02:01:04;;;;;;;1999.90;999.90;;;7.10;99.90;;;;;;5092557;28;20049;-79
2023/02/23 02:03:37;;;;;;;1999.90;999.90;;;7.10;99.90;;;;;;5092708;28;20024;-79
2023/02/23 02:06:04;;;;;;;1999.90;999.90;;;7.10;99.90;;;;;;5092533;28;20600;-72
2023/02/23 02:08:31;;;;;;;1999.90;999.90;;;7.10;99.90;;;;;;5092347;28;20039;-72
2023/02/23 02:10:58;;;;;;;1999.90;999.90;;;7.00;99.90;;;;;;5092372;28;20115;-79
2023/02/23 02:13:29;;;;;;;1999.90;999.90;;;7.00;99.90;;;;;;5092507;28;20468;-79
2023/02/23 02:16:14;;;;;;;1999.90;999.90;;;7.10;99.90;;;;;;5092464;28;20077;-79
2023/02/23 02:18:49;;;;;;;1999.90;999.90;;;7.10;99.90;;;;;;5092139;28;20496;-72
2023/02/23 02:21:57;;;;;;;1999.90;999.90;;;7.10;99.90;;;;;;5078084;28;20075;-72
2023/02/23 02:24:41;;;;;;;1999.90;999.90;;;7.00;99.90;;;;;;5065996;28;20036;-79
2023/02/23 02:27:25;;;;;;;1999.90;999.90;;;7.00;99.90;;;;;;5071372;28;20033;-79
2023/02/23 02:30:00;;;;;;;1999.90;999.90;;;6.90;99.90;;;;;;5072008;28;20070;-79
2023/02/23 02:32:26;;;;;;;1999.90;999.90;;;7.00;99.90;;;;;;5071930;28;20071;-79
2023/02/23 02:35:40;;;;;;;1999.90;999.90;;;6.90;99.90;;;;;;5071867;28;20048;-72
2023/02/23 02:38:49;;;;;;;1999.90;999.90;;;6.90;99.90;;;;;;5073541;28;20546;-79
2023/02/23 02:41:41;;;;;;;1999.90;999.90;;;6.90;99.90;;;;;;5091937;28;20066;-73
2023/02/23 02:44:26;;;;;;;1999.90;999.90;;;6.80;99.90;;;;;;5091885;28;20020;-76
2023/02/23 02:47:00;;;;;;;1999.90;999.90;;;6.80;99.90;;;;;;5091778;28;20052;-73
2023/02/23 02:49:34;;;;;;;1999.90;999.90;;;6.80;99.90;;;;;;5091836;28;20437;-79
2023/02/23 02:52:22;;;;;;;1999.90;999.90;;;6.70;99.90;;;;;;5091789;28;20060;-79
2023/02/23 02:54:55;;;;;;;1999.90;999.90;;;6.70;99.90;;;;;;5091766;28;20023;-80
2023/02/23 02:57:24;;;;;;;1999.90;999.90;;;6.70;99.90;;;;;;5091771;28;20024;-72
2023/02/23 04:19:50;;;;;;;1999.90;999.90;;;6.00;99.90;;;;;;5093262;28;20388;-72
2023/02/23 04:22:16;;;;;;;1999.90;999.90;;;6.00;99.90;;;;;;5073969;28;20111;-79
2023/02/23 04:24:42;;;;;;;1999.90;999.90;;;6.00;99.90;;;;;;5074078;28;20100;-79
2023/02/23 04:27:07;;;;;;;1999.90;999.90;;;6.00;99.90;;;;;;5074007;28;20393;-79
2023/02/23 04:29:33;;;;;;;1999.90;999.90;;;6.00;99.90;;;;;;5074366;28;20062;-79
2023/02/23 04:31:58;;;;;;;1999.90;999.90;;;5.90;99.90;;;;;;5074320;28;20029;-72
2023/02/23 04:34:24;;;;;;;1999.90;999.90;;;5.90;99.90;;;;;;5073964;28;20489;-79
2023/02/23 04:36:50;;;;;;;1999.90;999.90;;;5.90;99.90;;;;;;5073768;28;20086;-77
2023/02/23 04:39:16;;;;;;;1999.90;999.90;;;5.90;99.90;;;;;;5080429;28;20024;-72
2023/02/23 04:41:41;;;;;;;1999.90;999.90;;;5.90;99.90;;;;;;5094288;28;20028;-79
2023/02/23 04:44:07;;;;;;;1999.90;999.90;;;5.90;99.90;;;;;;5094054;28;20532;-72
2023/02/23 04:46:32;;;;;;;1999.90;999.90;;;5.90;99.90;;;;;;5093718;28;20082;-79
2023/02/23 04:48:58;;;;;;;1999.90;999.90;;;5.90;99.90;;;;;;5093997;28;20101;-79
2023/02/23 04:51:29;;;;;;;1999.90;999.90;;;5.90;99.90;;;;;;5093353;28;20028;-79
2023/02/23 04:53:54;;;;;;;1999.90;999.90;;;5.80;99.90;;;;;;5093860;28;20099;-79
2023/02/23 04:56:20;;;;;;;1999.90;999.90;;;5.90;99.90;;;;;;5093654;28;20511;-72
2023/02/23 04:58:46;;;;;;;1999.90;999.90;;;5.90;99.90;;;;;;5093498;28;20392;-72
2023/02/23 05:01:11;;;;;;;1999.90;999.90;;;5.80;99.90;;;;;;5093719;28;20081;-79
2023/02/23 05:03:37;;;;;;;1999.90;999.90;;;5.80;99.90;;;;;;5093971;28;20097;-79
2023/02/23 05:06:03;;;;;;;1999.90;999.90;;;5.90;99.90;;;;;;5093696;28;20409;-73
2023/02/23 05:08:28;;;;;;;1999.90;999.90;;;5.80;99.90;;;;;;5093476;28;20042;-72
2023/02/23 05:10:54;;;;;;;1999.90;999.90;;;5.80;99.90;;;;;;5093249;28;20052;-72
2023/02/23 05:13:20;;;;;;;1999.90;999.90;;;5.80;99.90;;;;;;5093409;28;20024;-78
2023/02/23 05:15:46;;;;;;;1999.90;999.90;;;5.80;99.90;;;;;;5093787;28;20046;-79
2023/02/23 05:18:12;;;;;;;1999.90;999.90;;;5.80;99.90;;;;;;5093303;28;20821;-79
2023/02/23 05:20:40;;;;;;;1999.90;999.90;;;5.80;99.90;;;;;;5082438;28;20116;-72
2023/02/23 05:23:06;;;;;;;1999.90;999.90;;;5.80;99.90;;;;;;5072999;28;20507;-79
2023/02/23 05:25:32;;;;;;;1999.90;999.90;;;5.70;99.90;;;;;;5072993;28;20021;-72
2023/02/23 05:27:58;;;;;;;1999.90;999.90;;;5.70;99.90;;;;;;5073149;28;20086;-79
2023/02/23 05:30:23;;;;;;;1999.90;999.90;;;5.70;99.90;;;;;;5072921;28;20028;-79
2023/02/23 05:32:50;;;;;;;1999.90;999.90;;;5.70;99.90;;;;;;5072926;28;20075;-79
2023/02/23 05:35:15;;;;;;;1999.90;999.90;;;5.70;99.90;;;;;;5072710;28;20024;-72
2023/02/23 05:37:41;;;;;;;1999.90;999.90;;;5.70;99.90;;;;;;5072592;28;20374;-79
2023/02/23 05:40:07;;;;;;;1999.90;999.90;;;5.70;99.90;;;;;;5090059;28;20031;-78
2023/02/23 05:42:33;;;;;;;1999.90;999.90;;;5.70;99.90;;;;;;5092928;28;20020;-79
2023/02/23 05:44:59;;;;;;;1999.90;999.90;;;5.70;99.90;;;;;;5092778;28;20028;-79
2023/02/23 05:47:24;;;;;;;1999.90;999.90;;;5.70;99.90;;;;;;5092757;28;20512;-71
2023/02/23 05:49:50;;;;;;;1999.90;999.90;;;5.70;99.90;;;;;;5091508;28;20076;-72
2023/02/23 05:52:15;;;;;;;1999.90;999.90;;;5.70;99.90;;;;;;5092658;28;20089;-80
2023/02/23 05:54:41;;;;;;;1999.90;999.90;;;5.70;99.90;;;;;;5092932;28;20035;-79
2023/02/23 05:57:07;;;;;;;1999.90;999.90;;;5.70;99.90;;;;;;5100820;28;20025;-72
2023/02/23 05:59:33;;;;;;;1999.90;999.90;;;5.70;99.90;;;;;;5092846;28;20549;-77
2023/02/23 06:01:58;;;;;;;1999.90;999.90;;;5.70;99.90;;;;;;5091969;28;20056;-72
2023/02/23 06:04:24;;;;;;;1999.90;999.90;;;5.60;99.90;;;;;;5091890;28;20506;-71
2023/02/23 06:06:49;;;;;;;1999.90;999.90;;;5.60;99.90;;;;;;5092547;28;20162;-78
2023/02/23 06:09:15;;;;;;;1999.90;999.90;;;5.60;99.90;;;;;;5091727;28;20051;-72
2023/02/23 06:11:40;;;;;;;1999.90;999.90;;;5.60;99.90;;;;;;5092394;28;20035;-72
2023/02/23 06:14:06;;;;;;;1999.90;999.90;;;5.60;99.90;;;;;;5092252;28;20039;-72
2023/02/23 06:16:32;;;;;;;1999.90;999.90;;;5.60;99.90;;;;;;5092169;28;20101;-79
2023/02/23 06:18:57;;;;;;;1999.90;999.90;;;5.60;99.90;;;;;;5092087;28;20032;-79
2023/02/23 06:21:24;;;;;;;1999.90;999.90;;;5.60;99.90;;;;;;5076952;28;20032;-72
2023/02/23 06:23:50;;;;;;;1999.90;999.90;;;5.60;99.90;;;;;;5071930;28;20048;-79
2023/02/23 06:26:15;;;;;;;1999.90;999.90;;;5.60;99.90;;;;;;5071722;28;20378;-79
2023/02/23 06:28:41;;;;;;;1999.90;999.90;;;5.60;99.90;;;;;;5071516;28;20082;-79
2023/02/23 06:31:07;;;;;;;1999.90;999.90;;;5.60;99.90;;;;;;5078071;28;20023;-79
2023/02/23 06:33:32;;;;;;;1999.90;999.90;;;5.50;99.90;;;;;;5090885;28;20032;-79
2023/02/23 06:35:58;;;;;;;1999.90;999.90;;;5.60;99.90;;;;;;5083404;28;20059;-81
2023/02/23 06:38:23;;;;;;;1999.90;999.90;;;5.60;99.90;;;;;;5075697;28;20090;-79
2023/02/23 06:40:49;;;;;;;1999.90;999.90;;;5.60;99.90;;;;;;5076410;28;20098;-73
2023/02/23 06:43:15;;;;;;;1999.90;999.90;;;5.50;99.90;;;;;;5079830;28;20036;-79
2023/02/23 06:45:40;;;;;;;1999.90;999.90;;;5.50;99.90;;;;;;5095323;28;20062;-79
2023/02/23 06:48:06;;;;;;;1999.90;999.90;;;5.50;99.90;;;;;;5111808;28;20115;-72
2023/02/23 06:50:32;;;;;;;1999.90;999.90;;;5.50;99.90;;;;;;5092933;28;20020;-79
2023/02/23 06:52:57;;;;;;;1999.90;999.90;;;5.50;99.90;;;;;;5091653;28;20035;-72
2023/02/23 06:55:23;;;;;;;1999.90;999.90;;;5.50;99.90;;;;;;5091223;28;20028;-71
2023/02/23 06:57:50;;;;;;;1999.90;999.90;;;5.60;99.90;;;;;;5083359;28;20020;-78
2023/02/23 07:00:16;;;;;;;1999.90;999.90;;;5.60;99.90;;;;;;5091027;28;20118;-78
2023/02/23 07:02:43;;;;;;;1999.90;999.90;;;5.60;99.90;;;;;;5089738;28;20025;-71
2023/02/23 07:05:09;;;;;;;1999.90;999.90;;;5.60;99.90;;;;;;5090383;28;20115;-71
2023/02/23 07:07:35;;;;;;;1999.90;999.90;;;5.50;99.90;;;;;;5089909;28;20044;-72
2023/02/23 07:10:01;;;;;;;1999.90;999.90;;;5.60;99.90;;;;;;5082486;28;20032;-79
2023/02/23 07:12:27;;;;;;;1999.90;999.90;;;5.60;99.90;;;;;;5086943;28;20028;-76
2023/02/23 07:14:52;;;;;;;1999.90;999.90;;;5.60;99.90;;;;;;5090234;28;20499;-78
2023/02/23 07:17:18;;;;;;;1999.90;999.90;;;5.60;99.90;;;;;;5078073;28;20765;-72
2023/02/23 07:19:44;;;;;;;1999.90;999.90;;;5.60;99.90;;;;;;5087841;28;20097;-78
2023/02/23 07:22:09;;;;;;;1999.90;999.90;;;5.70;99.90;;;;;;5088950;28;20019;-78
2023/02/23 07:24:35;;;;;;;1999.90;999.90;;;5.70;99.90;;;;;;5078582;28;20024;-79
2023/02/23 07:27:01;;;;;;;1999.90;999.90;;;5.60;99.90;;;;;;5092534;28;20029;-71
2023/02/23 07:29:27;;;;;;;1999.90;999.90;;;5.60;99.90;;;;;;5089554;28;20026;-73
2023/02/23 07:31:53;;;;;;;1999.90;999.90;;;5.60;99.90;;;;;;5091280;28;20019;-71
2023/02/23 07:34:19;;;;;;;1999.90;999.90;;;5.60;99.90;;;;;;5094370;28;20032;-78
2023/02/23 07:36:44;;;;;;;1999.90;999.90;;;5.70;99.90;;;;;;5094522;28;20046;-79
2023/02/23 07:39:10;;;;;;;1999.90;999.90;;;5.60;99.90;;;;;;5096274;28;20028;-78
2023/02/23 07:41:36;;;;;;;1999.90;999.90;;;5.70;99.90;;;;;;5090841;28;20492;-71
2023/02/23 07:44:01;;;;;;;1999.90;999.90;;;5.70;99.90;;;;;;5094247;28;20047;-70
2023/02/23 07:46:27;;;;;;;1999.90;999.90;;;5.70;99.90;;;;;;5092661;28;20129;-71
2023/02/23 07:48:53;;;;;;;1999.90;999.90;;;5.70;99.90;;;;;;5094359;28;20031;-78
2023/02/23 07:51:19;;;;;;;1999.90;999.90;;;5.70;99.90;;;;;;5093236;28;20035;-78
2023/02/23 07:53:44;;;;;;;1999.90;999.90;;;5.80;99.90;;;;;;5085708;28;20488;-77
2023/02/23 07:56:11;;;;;;;1999.90;999.90;;;5.80;99.90;;;;;;5089163;28;20032;-78
2023/02/23 07:58:42;;;;;;;1999.90;999.90;;;5.80;99.90;;;;;;5085219;28;20583;-71
2023/02/23 08:01:09;;;;;;;1999.90;999.90;;;5.90;99.90;;;;;;5087780;28;20149;-71
2023/02/23 08:03:34;;;;;;;1999.90;999.90;;;5.90;99.90;;;;;;5093050;28;20034;-78
2023/02/23 08:06:00;;;;;;;1999.90;999.90;;;5.90;99.90;;;;;;5098470;28;20083;-78
2023/02/23 08:08:26;;;;;;;1999.90;999.90;;;5.90;99.90;;;;;;5101175;28;20040;-76
2023/02/23 08:10:59;;;;;;;1999.90;999.90;;;5.90;99.90;;;;;;5086829;28;20409;-71
2023/02/23 08:13:25;;;;;;;1999.90;999.90;;;6.00;99.90;;;;;;5089769;28;20028;-71
2023/02/23 08:15:50;;;;;;;1999.90;999.90;;;6.00;99.90;;;;;;5091589;28;20099;-78
2023/02/23 08:18:16;;;;;;;1999.90;999.90;;;6.00;99.90;;;;;;5079302;28;20146;-76
2023/02/23 08:20:42;;;;;;;1999.90;999.90;;;6.00;99.90;;;;;;5088436;28;20052;-71
2023/02/23 08:23:07;;;;;;;1999.90;999.90;;;6.00;99.90;;;;;;5080188;28;20059;-71
2023/02/23 08:25:34;;;;;;;1999.90;999.90;;;6.00;99.90;;;;;;5087092;28;20032;-78
2023/02/23 08:28:03;;;;;;;1999.90;999.90;;;6.00;99.90;;;;;;5096472;28;20054;-71
2023/02/23 08:30:29;;;;;;;1999.90;999.90;;;5.90;99.90;;;;;;5085372;28;20020;-79
2023/02/23 08:32:55;;;;;;;1999.90;999.90;;;5.90;99.90;;;;;;5098491;28;20519;-78
2023/02/23 08:35:21;;;;;;;1999.90;999.90;;;5.90;99.90;;;;;;5089427;28;20028;-71
2023/02/23 08:37:47;;;;;;;1999.90;999.90;;;6.00;99.90;;;;;;5094030;28;20109;-71
2023/02/23 08:40:14;;;;;;;1999.90;999.90;;;6.00;99.90;;;;;;5091124;28;20028;-78
2023/02/23 08:42:41;;;;;;;1999.90;999.90;;;6.10;99.90;;;;;;5085779;28;20508;-71
2023/02/23 08:45:07;;;;;;;1999.90;999.90;;;6.10;99.90;;;;;;5088696;28;20059;-78
2023/02/23 08:47:34;;;;;;;1999.90;999.90;;;6.10;99.90;;;;;;5094239;28;20044;-71
2023/02/23 08:50:00;;;;;;;1999.90;999.90;;;6.10;99.90;;;;;;5093821;28;20024;-78
2023/02/23 08:52:26;;;;;;;1999.90;999.90;;;6.20;99.90;;;;;;5088113;28;20028;-81
2023/02/23 08:54:51;;;;;;;1999.90;999.90;;;6.10;99.90;;;;;;5098631;28;20085;-81
2023/02/23 08:57:18;;;;;;;1999.90;999.90;;;6.10;99.90;;;;;;5086157;28;20039;-80
2023/02/23 08:59:43;;;;;;;1999.90;999.90;;;6.10;99.90;;;;;;5092240;28;20531;-74
2023/02/23 09:02:12;;;;;;;1999.90;999.90;;;6.00;99.90;;;;;;5091791;28;20046;-81
2023/02/23 09:04:40;;;;;;;1999.90;999.90;;;6.00;99.90;;;;;;5093413;28;20024;-81
2023/02/23 09:07:07;;;;;;;1999.90;999.90;;;6.00;99.90;;;;;;5090730;28;20054;-79
2023/02/23 09:09:33;;;;;;;1999.90;999.90;;;6.00;99.90;;;;;;5095007;28;20407;-81
2023/02/23 09:11:59;;;;;;;1999.90;999.90;;;6.00;99.90;;;;;;5089742;28;20472;-81
2023/02/23 09:14:25;;;;;;;1999.90;999.90;;;6.00;99.90;;;;;;5098462;28;20024;-74
2023/02/23 09:16:51;;;;;;;1999.90;999.90;;;6.00;99.90;;;;;;5090767;28;20088;-81
2023/02/23 09:19:16;;;;;;;1999.90;999.90;;;6.00;99.90;;;;;;5083255;28;20067;-74
2023/02/23 09:21:43;;;;;;;1999.90;999.90;;;6.00;99.90;;;;;;5087066;28;20461;-75
2023/02/23 09:24:09;;;;;;;1999.90;999.90;;;5.90;99.90;;;;;;5093925;28;20046;-74
2023/02/23 09:26:39;;;;;;;1999.90;999.90;;;5.90;99.90;;;;;;5094655;28;20063;-82
2023/02/23 09:29:05;;;;;;;1999.90;999.90;;;5.80;99.90;;;;;;5090920;28;20157;-72
2023/02/23 09:31:31;;;;;;;1999.90;999.90;;;5.80;99.90;;;;;;5088923;28;20036;-80
2023/02/23 09:33:59;;;;;;;1999.90;999.90;;;5.90;99.90;;;;;;5093380;28;20381;-71
2023/02/23 09:36:25;;;;;;;1999.90;999.90;;;5.80;99.90;;;;;;5085481;28;20021;-80
2023/02/23 09:38:57;;;;;;;1999.90;999.90;;;5.80;99.90;;;;;;5082750;28;20480;-80
2023/02/23 09:41:26;;;;;;;1999.90;999.90;;;5.80;99.90;;;;;;5091148;28;20068;-71
2023/02/23 09:43:58;;;;;;;1999.90;999.90;;;5.90;99.90;;;;;;5088811;28;20066;-72
2023/02/23 09:46:29;;;;;;;1999.90;999.90;;;6.00;99.90;;;;;;5090257;28;20062;-80
2023/02/23 09:48:59;;;;;;;1999.90;999.90;;;6.00;99.90;;;;;;5084927;28;20028;-77
2023/02/23 09:51:28;;;;;;;1999.90;999.90;;;6.00;99.90;;;;;;5087628;28;20016;-80
2023/02/23 09:53:56;;;;;;;1999.90;999.90;;;6.00;99.90;;;;;;5094717;28;20455;-71
2023/02/23 09:56:36;;;;;;;1999.90;999.90;;;6.00;99.90;;;;;;5091816;28;20035;-71
2023/02/23 09:59:05;;;;;;;1999.90;999.90;;;6.00;99.90;;;;;;5092352;28;20058;-71
2023/02/23 10:01:38;;;;;;;1999.90;999.90;;;6.00;99.90;;;;;;5095499;28;20055;-79
2023/02/23 10:04:25;;;;;;;1999.90;999.90;;;6.10;99.90;;;;;;5089730;28;20099;-78
2023/02/23 10:06:58;;;;;;;1999.90;999.90;;;6.00;99.90;;;;;;5081690;28;20036;-71
2023/02/23 10:09:35;;;;;;;1999.90;999.90;;;6.10;99.90;;;;;;5092643;28;20038;-71
2023/02/23 10:12:30;;;;;;;1999.90;999.90;;;6.00;99.90;;;;;;5097446;28;20038;-71
2023/02/23 10:15:27;;;;;;;1999.90;999.90;;;6.00;99.90;;;;;;5085683;28;20032;-76
2023/02/23 10:18:19;;;;;;;1999.90;999.90;;;6.10;99.90;;;;;;5091623;28;20028;-71
2023/02/23 10:21:03;;;;;;;1999.90;999.90;;;6.00;99.90;;;;;;5097403;28;20062;-71
2023/02/23 10:24:00;;;;;;;1999.90;999.90;;;6.00;99.90;;;;;;5091104;28;20028;-70
2023/02/23 10:26:36;;;;;;;1999.90;999.90;;;6.10;99.90;;;;;;5081482;28;20055;-78
2023/02/23 10:29:14;;;;;;;1999.90;999.90;;;6.10;99.90;;;;;;5087696;28;20530;-71
2023/02/23 10:31:43;;;;;;;1999.90;999.90;;;6.10;99.90;;;;;;5088846;28;20028;-77
2023/02/23 10:34:14;;;;;;;1999.90;999.90;;;6.00;99.90;;;;;;5100841;28;20106;-77
2023/02/23 10:37:11;;;;;;;1999.90;999.90;;;6.00;99.90;;;;;;5096581;28;20069;-71
2023/02/23 10:39:40;;;;;;;1999.90;999.90;;;5.80;99.90;;;;;;5082648;28;20032;-78
2023/02/23 10:42:13;;;;;;;1999.90;999.90;;;5.80;99.90;;;;;;5085066;28;20075;-79
2023/02/23 10:44:44;;;;;;;1999.90;999.90;;;5.80;99.90;;;;;;5089018;28;20024;-79
2023/02/23 10:47:19;;;;;;;1999.90;999.90;;;5.70;99.90;;;;;;5088416;28;20451;-70
2023/02/23 10:49:53;;;;;;;1999.90;999.90;;;5.60;99.90;;;;;;5090109;28;20139;-71
2023/02/23 10:52:37;;;;;;;1999.90;999.90;;;5.60;99.90;;;;;;5094568;28;20027;-71
2023/02/23 10:55:06;;;;;;;1999.90;999.90;;;5.50;99.90;;;;;;5090474;28;20036;-79
2023/02/23 10:57:36;;;;;;;1999.90;999.90;;;5.50;99.90;;;;;;5081377;28;20028;-75
2023/02/23 11:00:25;;;;;;;1999.90;999.90;;;5.50;99.90;;;;;;5089324;28;20488;-71
2023/02/23 11:02:52;;;;;;;1999.90;999.90;;;5.50;99.90;;;;;;5087228;28;20071;-71
2023/02/23 11:05:43;;;;;;;1999.90;999.90;;;5.50;99.90;;;;;;5084468;28;20043;-79
2023/02/23 11:08:34;;;;;;;1999.90;999.90;;;5.40;99.90;;;;;;5074745;28;20023;-71
2023/02/23 11:11:15;;;;;;;1999.90;999.90;;;5.60;99.90;;;;;;5077676;28;20028;-79
2023/02/23 11:13:48;;;;;;;1999.90;999.90;;;5.50;99.90;;;;;;5079926;28;20039;-79
2023/02/23 11:16:37;;;;;;;1999.90;999.90;;;5.50;99.90;;;;;;5088276;28;20024;-79
2023/02/23 11:19:06;;;;;;;1999.90;999.90;;;5.50;99.90;;;;;;5072955;28;20048;-71
2023/02/23 11:21:34;;;;;;;1999.90;999.90;;;5.50;99.90;;;;;;5080610;28;20094;-78
2023/02/23 11:24:22;;;;;;;1999.90;999.90;;;5.50;99.90;;;;;;5086335;28;20077;-78
2023/02/23 11:26:51;;;;;;;1999.90;999.90;;;5.50;99.90;;;;;;5076888;28;20103;-71
2023/02/23 11:29:20;;;;;;;1999.90;999.90;;;5.60;99.90;;;;;;5075271;28;20070;-71
2023/02/23 11:31:53;;;;;;;1999.90;999.90;;;5.50;99.90;;;;;;5080295;28;20107;-77
2023/02/23 11:34:27;;;;;;;1999.90;999.90;;;5.50;99.90;;;;;;5076103;28;20024;-77
2023/02/23 11:37:07;;;;;;;1999.90;999.90;;;5.30;99.90;;;;;;5077046;28;20036;-77
2023/02/23 11:39:33;;;;;;;1999.90;999.90;;;5.30;99.90;;;;;;5080190;28;20055;-70
2023/02/23 11:42:19;;;;;;;1999.90;999.90;;;5.30;99.90;;;;;;5080514;28;20441;-70
2023/02/23 11:45:01;;;;;;;1999.90;999.90;;;5.30;99.90;;;;;;5074241;28;20036;-70
2023/02/23 11:47:28;;;;;;;1999.90;999.90;;;5.30;99.90;;;;;;5082135;28;20142;-77
2023/02/23 11:49:54;;;;;;;1999.90;999.90;;;5.30;99.90;;;;;;5082365;28;20067;-73
2023/02/23 11:52:23;;;;;;;1999.90;999.90;;;5.20;99.90;;;;;;5083921;28;20032;-70
2023/02/23 11:55:01;;;;;;;1999.90;999.90;;;5.30;99.90;;;;;;5086779;28;20034;-70
2023/02/23 11:57:32;;;;;;;1999.90;999.90;;;5.40;99.90;;;;;;5085854;28;20357;-77
2023/02/23 12:00:00;;;;;;;1999.90;999.90;;;5.30;99.90;;;;;;5078588;28;20020;-70
2023/02/23 12:02:28;;;;;;;1999.90;999.90;;;5.30;99.90;;;;;;5085974;28;20026;-77
2023/02/23 12:05:06;;;;;;;1999.90;999.90;;;5.30;99.90;;;;;;5087306;28;20028;-71
2023/02/23 12:07:37;;;;;;;1999.90;999.90;;;5.30;99.90;;;;;;5087178;28;20038;-71
2023/02/23 12:10:20;;;;;;;1999.90;999.90;;;5.40;99.90;;;;;;5086470;28;20032;-77
2023/02/23 12:13:23;;;;;;;1999.90;999.90;;;5.30;99.90;;;;;;5082669;28;20063;-70
2023/02/23 12:16:28;;;;;;;1999.90;999.90;;;5.30;99.90;;;;;;5084856;28;20032;-70
2023/02/23 12:19:16;;;;;;;1999.90;999.90;;;5.30;99.90;;;;;;5077501;28;20034;-70
2023/02/23 12:21:54;;;;;;;1999.90;999.90;;;5.30;99.90;;;;;;5085179;28;20388;-70
2023/02/23 12:24:50;;;;;;;1999.90;999.90;;;5.30;99.90;;;;;;5081252;28;20053;-78
2023/02/23 12:27:35;;;;;;;1999.90;999.90;;;5.20;99.90;;;;;;5080093;28;20088;-78
2023/02/23 12:30:39;;;;;;;1999.90;999.90;;;5.10;99.90;;;;;;5081130;28;20170;-70
2023/02/23 12:33:21;;;;;;;1999.90;999.90;;;5.00;99.90;;;;;;5058792;28;20047;-70
2023/02/23 12:36:06;;;;;;;1999.90;999.90;;;5.00;99.90;;;;;;5088621;28;20040;-78
2023/02/23 12:38:48;;;;;;;1999.90;999.90;;;5.00;99.90;;;;;;5085241;28;20085;-70
2023/02/23 12:41:39;;;;;;;1999.90;999.90;;;4.90;99.90;;;;;;5087912;28;20032;-76
2023/02/23 12:44:31;;;;;;;1999.90;999.90;;;5.00;99.90;;;;;;5076877;28;20040;-70
2023/02/23 12:47:08;;;;;;;1999.90;999.90;;;4.90;99.90;;;;;;5079797;28;20523;-71
2023/02/23 12:49:39;;;;;;;1999.90;999.90;;;4.90;99.90;;;;;;5081905;28;20162;-70
2023/02/23 12:52:15;;;;;;;1999.90;999.90;;;4.90;99.90;;;;;;5083241;28;20024;-70
2023/02/23 12:54:45;;;;;;;1999.90;999.90;;;4.90;99.90;;;;;;5086023;28;20039;-78
2023/02/23 12:57:58;;;;;;;1999.90;999.90;;;4.90;99.90;;;;;;5082607;28;20028;-78
2023/02/23 13:00:46;;;;;;;1999.90;999.90;;;4.90;99.90;;;;;;5004874;28;20041;-78
2023/02/23 13:03:30;;;;;;;1999.90;999.90;;;5.00;99.90;;;;;;5007275;28;20037;-77
2023/02/23 13:06:29;;;;;;;1999.90;999.90;;;5.10;99.90;;;;;;5007497;28;20475;-70
2023/02/23 13:09:08;;;;;;;1999.90;999.90;;;5.10;99.90;;;;;;5010506;28;20939;-71
2023/02/23 13:11:52;;;;;;;1999.90;999.90;;;5.20;99.90;;;;;;5005344;28;20122;-77
2023/02/23 13:14:38;;;;;;;1999.90;999.90;;;5.20;99.90;;;;;;5010046;28;20104;-76
2023/02/23 13:17:27;;;;;;;1999.90;999.90;;;5.30;99.90;;;;;;5009493;28;20044;-75
2023/02/23 13:19:57;;;;;;;1999.90;999.90;;;5.20;99.90;;;;;;4998629;28;20477;-71
2023/02/23 13:22:45;;;;;;;1999.90;999.90;;;5.20;99.90;;;;;;5006855;28;20057;-70
2023/02/23 13:25:16;;;;;;;1999.90;999.90;;;5.10;99.90;;;;;;4998682;28;20030;-70
2023/02/23 13:27:51;;;;;;;1999.90;999.90;;;5.00;99.90;;;;;;5008128;28;20053;-76
2023/02/23 13:30:19;;;;;;;1999.90;999.90;;;5.10;99.90;;;;;;5008518;28;20072;-75
2023/02/23 13:32:45;;;;;;;1999.90;999.90;;;5.10;99.90;;;;;;5008564;28;20064;-76
2023/02/23 13:35:16;;;;;;;1999.90;999.90;;;5.20;99.90;;;;;;5065929;28;20036;-70
2023/02/23 13:38:18;;;;;;;1999.90;999.90;;;5.30;99.90;;;;;;5089050;28;20092;-70
2023/02/23 13:41:19;;;;;;;1999.90;999.90;;;5.40;99.90;;;;;;5063103;28;20052;-77
2023/02/23 13:44:10;;;;;;;1999.90;999.90;;;5.30;99.90;;;;;;5086943;28;20032;-76
2023/02/23 13:46:52;;;;;;;1999.90;999.90;;;5.50;99.90;;;;;;5071660;28;20127;-78
2023/02/23 13:49:48;;;;;;;1999.90;999.90;;;5.80;99.90;;;;;;5074586;28;20517;-76
2023/02/23 13:52:41;;;;;;;1999.90;999.90;;;5.90;99.90;;;;;;5083320;28;20059;-70